Time;durP1;ratioP1;P1;durP2;ratioP2;P2;SDS_P1;SDS_P2;PMS_P1;PMS_P2;Temp;Humidity;BMP_temperature;BMP_pressure;BME280_temperature;BME280_humidity;BME280_pressure;Samples;Min_cycle;Max_cycle;Signal;HPM_P1;HPM_P2
2023/07/30 00:00:25;;;;;;;;;;;;;;;19.06;nan;99800.19;5032058;28;20401;-83
2023/07/30 00:02:50;;;;;;;;;;;;;;;19.02;nan;99804.38;5032999;28;19966;-83
2023/07/30 00:05:15;;;;;;;;;;;;;;;19.00;nan;99827.91;5046944;28;19947;-84
2023/07/30 00:07:41;;;;;;;;;;;;;;;18.95;nan;99819.72;5050325;28;19913;-84
2023/07/30 00:10:06;;;;;;;;;;;;;;;;;;5043742;28;19917;-83
2023/07/30 00:12:31;;;;;;;;;;;;;;;18.92;nan;99825.50;5032912;28;20321;-83
2023/07/30 00:14:56;;;;;;;;;;;;;;;18.89;nan;99825.97;5049790;28;20365;-84
2023/07/30 00:17:22;;;;;;;;;;;;;;;18.87;nan;99826.19;5048269;28;19913;-82
2023/07/30 00:19:47;;;;;;;;;;;;;;;18.86;nan;99818.38;5034716;28;20450;-83
2023/07/30 00:22:13;;;;;;;;;;;;;;;18.86;nan;99831.78;5032408;28;19921;-84
2023/07/30 00:24:39;;;;;;;;;;;;;;;18.84;nan;99823.97;5033760;28;19917;-83
2023/07/30 00:27:08;;;;;;;;;;;;;;;18.83;nan;99827.69;5051880;28;19920;-83
2023/07/30 00:29:34;;;;;;;;;;;;;;;;;;5039610;28;19964;-84
2023/07/30 00:31:59;;;;;;;;;;;;;;;18.81;nan;99840.47;5061143;28;19959;-83
2023/07/30 00:34:25;;;;;;;;;;;;;;;18.78;nan;99840.09;5051300;28;19916;-84
2023/07/30 00:36:51;;;;;;;;;;;;;;;18.75;nan;99835.97;5066065;28;20097;-82
2023/07/30 00:39:17;;;;;;;;;;;;;;;18.74;nan;99834.34;5029743;28;19971;-81
2023/07/30 00:41:43;;;;;;;;;;;;;;;18.73;nan;99831.88;5054737;28;20378;-81
2023/07/30 00:44:08;;;;;;;;;;;;;;;18.73;nan;99848.75;5050086;28;19916;-82
2023/07/30 00:46:34;;;;;;;;;;;;;;;18.73;nan;99846.09;5032623;28;19920;-81
2023/07/30 00:48:59;;;;;;;;;;;;;;;;;;5054434;28;19917;-81
2023/07/30 00:51:26;;;;;;;;;;;;;;;18.73;nan;99843.41;5042783;28;19920;-84
2023/07/30 00:53:51;;;;;;;;;;;;;;;18.74;nan;99849.59;5066691;28;19912;-80
2023/07/30 00:56:16;;;;;;;;;;;;;;;18.75;nan;99851.22;5047678;28;20448;-85
2023/07/30 00:58:43;;;;;;;;;;;;;;;18.77;nan;99860.72;5035215;28;19921;-81
2023/07/30 01:01:08;;;;;;;;;;;;;;;;;;5062186;28;19912;-81
2023/07/30 01:03:33;;;;;;;;;;;;;;;18.87;nan;99852.16;5049493;28;19920;-83
2023/07/30 01:05:58;;;;;;;;;;;;;;;;;;5069220;28;19923;-81
2023/07/30 01:08:23;;;;;;;;;;;;;;;18.87;nan;99866.38;5055094;28;19924;-81
2023/07/30 01:10:50;;;;;;;;;;;;;;;18.88;nan;99859.97;5059471;28;19952;-82
2023/07/30 01:13:15;;;;;;;;;;;;;;;18.88;nan;99862.66;5065140;28;19920;-83
2023/07/30 01:15:40;;;;;;;;;;;;;;;18.92;nan;99862.22;5046624;28;19912;-82
2023/07/30 01:18:06;;;;;;;;;;;;;;;18.93;nan;99858.50;5059999;28;19920;-80
2023/07/30 01:20:31;;;;;;;;;;;;;;;18.93;nan;99864.69;5057468;28;20354;-84
2023/07/30 01:22:58;;;;;;;;;;;;;;;18.94;nan;99865.50;5069205;28;20301;-83
2023/07/30 01:25:23;;;;;;;;;;;;;;;;;;5061470;28;19925;-82
2023/07/30 01:27:50;;;;;;;;;;;;;;;18.92;nan;99863.03;5061410;28;19951;-82
2023/07/30 01:30:18;;;;;;;;;;;;;;;18.92;nan;99868.38;5051091;28;19916;-82
2023/07/30 01:32:44;;;;;;;;;;;;;;;18.92;nan;99863.03;5032335;28;20006;-82
2023/07/30 01:35:11;;;;;;;;;;;;;;;18.89;nan;99884.91;5057934;28;20380;-82
2023/07/30 01:37:37;;;;;;;;;;;;;;;18.88;nan;99872.56;5043790;28;19960;-82
2023/07/30 01:40:03;;;;;;;;;;;;;;;18.85;nan;99873.84;5055578;28;19967;-82
2023/07/30 01:42:31;;;;;;;;;;;;;;;18.83;nan;99875.91;5053224;28;19923;-83
2023/07/30 01:44:56;;;;;;;;;;;;;;;18.81;nan;99867.28;5064014;28;19917;-82
2023/07/30 01:47:21;;;;;;;;;;;;;;;18.81;nan;99869.94;5064015;28;19962;-82
2023/07/30 01:49:46;;;;;;;;;;;;;;;18.81;nan;99877.16;5041133;28;19969;-83
2023/07/30 01:52:12;;;;;;;;;;;;;;;18.82;nan;99894.88;5060228;28;19927;-82
2023/07/30 01:54:39;;;;;;;;;;;;;;;18.82;nan;99884.97;5075115;28;19912;-83
2023/07/30 01:57:04;;;;;;;;;;;;;;;18.83;nan;99891.97;5066919;28;20316;-83
2023/07/30 01:59:29;;;;;;;;;;;;;;;;;;5045047;28;19921;-83
2023/07/30 02:01:55;;;;;;;;;;;;;;;18.85;nan;99897.94;5063625;28;19961;-83
2023/07/30 02:04:21;;;;;;;;;;;;;;;18.85;nan;99889.91;5066635;28;19924;-83
2023/07/30 02:06:46;;;;;;;;;;;;;;;18.86;nan;99880.00;5072969;28;20542;-83
2023/07/30 02:09:11;;;;;;;;;;;;;;;18.86;nan;99880.00;5071173;28;19916;-83
2023/07/30 02:11:36;;;;;;;;;;;;;;;18.86;nan;99896.06;5058663;28;20277;-83
2023/07/30 02:14:01;;;;;;;;;;;;;;;18.84;nan;99877.53;5064315;28;19916;-84
2023/07/30 02:16:27;;;;;;;;;;;;;;;18.83;nan;99886.63;5072078;28;19959;-83
2023/07/30 02:18:52;;;;;;;;;;;;;;;18.83;nan;99877.75;5072457;28;19959;-84
2023/07/30 02:21:17;;;;;;;;;;;;;;;18.82;nan;99878.78;5067845;28;20374;-84
2023/07/30 02:23:42;;;;;;;;;;;;;;;18.81;nan;99875.31;5038924;28;19927;-83
2023/07/30 02:26:07;;;;;;;;;;;;;;;18.82;nan;99884.16;5068287;28;20409;-82
2023/07/30 02:28:33;;;;;;;;;;;;;;;18.82;nan;99892.19;5046334;28;19923;-82
2023/07/30 02:30:58;;;;;;;;;;;;;;;18.81;nan;99856.56;5060228;28;20289;-82
2023/07/30 02:33:23;;;;;;;;;;;;;;;18.80;nan;99887.03;5063277;28;19930;-82
2023/07/30 02:35:48;;;;;;;;;;;;;;;18.78;nan;99888.31;5066035;28;19923;-82
2023/07/30 02:38:13;;;;;;;;;;;;;;;18.77;nan;99887.50;5050364;28;20198;-83
2023/07/30 02:40:38;;;;;;;;;;;;;;;18.78;nan;99878.44;5058481;28;19916;-83
2023/07/30 02:43:04;;;;;;;;;;;;;;;18.78;nan;99889.16;5049229;28;19916;-83
2023/07/30 02:45:29;;;;;;;;;;;;;;;18.80;nan;99891.59;5054916;28;19916;-83
2023/07/30 02:47:54;;;;;;;;;;;;;;;;;;5072343;28;19916;-83
2023/07/30 02:50:19;;;;;;;;;;;;;;;18.80;nan;99884.38;5058783;28;19913;-83
2023/07/30 02:52:44;;;;;;;;;;;;;;;18.78;nan;99873.06;5065657;28;19917;-83
2023/07/30 02:55:09;;;;;;;;;;;;;;;18.77;nan;99887.50;5075160;28;19953;-83
2023/07/30 02:57:35;;;;;;;;;;;;;;;18.75;nan;99878.81;5060813;28;19913;-83
2023/07/30 03:00:00;;;;;;;;;;;;;;;18.73;nan;99891.63;5045912;28;19927;-83
2023/07/30 03:02:25;;;;;;;;;;;;;;;18.72;nan;99881.13;5058982;28;20294;-83
2023/07/30 03:04:50;;;;;;;;;;;;;;;18.70;nan;99872.50;5065920;28;20207;-83
2023/07/30 03:07:16;;;;;;;;;;;;;;;;;;5065596;28;19916;-83
2023/07/30 03:09:41;;;;;;;;;;;;;;;18.68;nan;99888.78;5068401;28;19974;-83
2023/07/30 03:12:06;;;;;;;;;;;;;;;18.65;nan;99897.25;5061392;28;20010;-83
2023/07/30 03:14:31;;;;;;;;;;;;;;;18.63;nan;99886.75;5060719;28;19952;-83
2023/07/30 03:16:57;;;;;;;;;;;;;;;18.65;nan;99895.41;5060694;28;19964;-83
2023/07/30 03:19:22;;;;;;;;;;;;;;;18.66;nan;99902.41;5068915;28;19927;-83
2023/07/30 03:21:47;;;;;;;;;;;;;;;18.67;nan;99893.31;5058583;28;20180;-82
2023/07/30 03:24:12;;;;;;;;;;;;;;;;;;5066478;28;19917;-83
2023/07/30 03:26:37;;;;;;;;;;;;;;;18.68;nan;99899.50;5065868;28;19918;-83
2023/07/30 03:29:02;;;;;;;;;;;;;;;18.68;nan;99904.84;5063155;28;19917;-82
2023/07/30 03:31:28;;;;;;;;;;;;;;;18.66;nan;99902.41;5056633;28;19916;-83
2023/07/30 03:33:53;;;;;;;;;;;;;;;18.67;nan;99904.03;5067643;28;19920;-83
2023/07/30 03:36:19;;;;;;;;;;;;;;;18.67;nan;99914.75;5068514;28;19916;-83
2023/07/30 03:38:44;;;;;;;;;;;;;;;18.67;nan;99913.94;5058326;28;19924;-82
2023/07/30 03:41:10;;;;;;;;;;;;;;;18.65;nan;99911.47;5055041;28;19924;-82
2023/07/30 03:43:35;;;;;;;;;;;;;;;18.64;nan;99915.19;5058113;28;20323;-82
2023/07/30 03:46:00;;;;;;;;;;;;;;;18.63;nan;99902.84;5071607;28;20042;-82
2023/07/30 03:48:25;;;;;;;;;;;;;;;18.62;nan;99916.47;5065211;28;19917;-82
2023/07/30 03:50:52;;;;;;;;;;;;;;;18.61;nan;99910.25;5053239;28;19923;-82
2023/07/30 03:53:17;;;;;;;;;;;;;;;18.61;nan;99898.75;5050027;28;19913;-82
2023/07/30 03:55:42;;;;;;;;;;;;;;;18.61;nan;99914.81;5072695;28;19924;-82
2023/07/30 03:58:07;;;;;;;;;;;;;;;18.59;nan;99924.91;5064685;28;19912;-82
2023/07/30 04:00:32;;;;;;;;;;;;;;;;;;5062691;28;19951;-82
2023/07/30 04:02:58;;;;;;;;;;;;;;;18.58;nan;99917.94;5050827;28;19927;-82
2023/07/30 04:05:23;;;;;;;;;;;;;;;18.58;nan;99931.31;5067294;28;20440;-82
2023/07/30 04:07:48;;;;;;;;;;;;;;;18.58;nan;99916.06;5060993;28;19916;-82
2023/07/30 04:10:13;;;;;;;;;;;;;;;18.55;nan;99918.38;5034923;28;19916;-82
2023/07/30 04:12:38;;;;;;;;;;;;;;;18.57;nan;99919.78;5061136;28;20286;-82
2023/07/30 04:15:04;;;;;;;;;;;;;;;18.58;nan;99934.81;5064588;28;19973;-82
2023/07/30 04:17:29;;;;;;;;;;;;;;;18.60;nan;99919.34;5064106;28;19927;-82
2023/07/30 04:19:54;;;;;;;;;;;;;;;18.61;nan;99930.88;5036648;28;19927;-82
2023/07/30 04:22:19;;;;;;;;;;;;;;;18.61;nan;99942.41;5051718;28;19917;-82
2023/07/30 04:24:45;;;;;;;;;;;;;;;18.60;nan;99946.13;5063277;28;19913;-82
2023/07/30 04:27:10;;;;;;;;;;;;;;;18.60;nan;99950.66;5060388;28;20007;-82
2023/07/30 04:29:35;;;;;;;;;;;;;;;18.59;nan;99959.72;5059580;28;19916;-82
2023/07/30 04:32:00;;;;;;;;;;;;;;;18.59;nan;99949.00;5065417;28;19987;-82
2023/07/30 04:34:25;;;;;;;;;;;;;;;18.57;nan;99946.56;5074394;28;19912;-82
2023/07/30 04:36:51;;;;;;;;;;;;;;;18.57;nan;99945.75;5058444;28;19916;-82
2023/07/30 04:39:16;;;;;;;;;;;;;;;18.55;nan;99953.19;5058169;28;20581;-82
2023/07/30 04:41:41;;;;;;;;;;;;;;;;;;5057039;28;19923;-83
2023/07/30 04:44:06;;;;;;;;;;;;;;;18.56;nan;99958.31;5052040;28;19917;-83
2023/07/30 04:46:33;;;;;;;;;;;;;;;18.58;nan;99958.91;5070956;28;19920;-83
2023/07/30 04:48:58;;;;;;;;;;;;;;;18.60;nan;99972.91;5070869;28;19916;-83
2023/07/30 04:51:23;;;;;;;;;;;;;;;18.61;nan;99969.19;5037132;28;19920;-83
2023/07/30 04:53:48;;;;;;;;;;;;;;;18.62;nan;99968.16;5066177;28;20336;-82
2023/07/30 04:56:13;;;;;;;;;;;;;;;18.62;nan;99960.13;5061554;28;20075;-83
2023/07/30 04:58:38;;;;;;;;;;;;;;;18.63;nan;99961.75;5066680;28;20225;-83
2023/07/30 05:01:04;;;;;;;;;;;;;;;18.65;nan;99959.66;5043338;28;20007;-82
2023/07/30 05:03:29;;;;;;;;;;;;;;;18.67;nan;99957.59;5070006;28;19916;-83
2023/07/30 05:05:54;;;;;;;;;;;;;;;18.72;nan;99958.81;5042935;28;20373;-82
2023/07/30 05:08:19;;;;;;;;;;;;;;;18.72;nan;99938.19;5037141;28;20020;-83
2023/07/30 05:10:48;;;;;;;;;;;;;;;18.75;nan;99948.47;5031982;28;19916;-83
2023/07/30 05:13:13;;;;;;;;;;;;;;;18.81;nan;99958.34;5034031;28;19924;-83
2023/07/30 05:15:38;;;;;;;;;;;;;;;18.85;nan;99956.03;5053453;28;19912;-83
2023/07/30 05:18:03;;;;;;;;;;;;;;;18.91;nan;99946.31;5053378;28;19944;-83
2023/07/30 05:20:29;;;;;;;;;;;;;;;18.95;nan;99932.25;5061789;28;20250;-83
2023/07/30 05:22:54;;;;;;;;;;;;;;;18.97;nan;99934.69;5061713;28;19923;-83
2023/07/30 05:25:19;;;;;;;;;;;;;;;18.94;nan;99933.28;5060724;28;19923;-83
2023/07/30 05:27:47;;;;;;;;;;;;;;;18.94;nan;99937.81;5050253;28;19956;-83
2023/07/30 05:30:12;;;;;;;;;;;;;;;18.93;nan;99917.44;5069826;28;19924;-83
2023/07/30 05:32:37;;;;;;;;;;;;;;;19.02;nan;99933.00;5067263;28;19935;-83
2023/07/30 05:35:03;;;;;;;;;;;;;;;19.20;nan;99928.69;5060013;28;20392;-82
2023/07/30 05:37:28;;;;;;;;;;;;;;;19.42;nan;99937.09;5048323;28;19916;-82
2023/07/30 05:39:53;;;;;;;;;;;;;;;19.71;nan;99940.88;5062275;28;20023;-83
2023/07/30 05:42:18;;;;;;;;;;;;;;;19.92;nan;99942.28;5057961;28;20000;-83
2023/07/30 05:44:44;;;;;;;;;;;;;;;20.20;nan;99948.91;5059363;28;19917;-83
2023/07/30 05:47:09;;;;;;;;;;;;;;;20.58;nan;99956.59;5068988;28;19943;-82
2023/07/30 05:49:34;;;;;;;;;;;;;;;20.94;nan;99960.94;5058608;28;19916;-83
2023/07/30 05:51:59;;;;;;;;;;;;;;;21.16;nan;99963.84;5062390;28;20380;-82
2023/07/30 05:54:24;;;;;;;;;;;;;;;21.26;nan;99957.06;5058918;28;19924;-82
2023/07/30 05:56:50;;;;;;;;;;;;;;;21.33;nan;99963.97;5065119;28;20293;-82
2023/07/30 05:59:15;;;;;;;;;;;;;;;;;;5058964;28;20014;-82
2023/07/30 06:01:40;;;;;;;;;;;;;;;21.57;nan;99969.31;5056450;28;19963;-82
2023/07/30 06:04:05;;;;;;;;;;;;;;;21.53;nan;99958.22;5051573;28;19917;-82
2023/07/30 06:06:30;;;;;;;;;;;;;;;21.66;nan;99972.47;5046498;28;19999;-82
2023/07/30 06:11:36;;;;;;;;;;;;;;;22.10;nan;99984.34;5164787;23;20137;-82
2023/07/30 06:14:01;;;;;;;;;;;;;;;22.41;nan;99985.75;5037606;28;19924;-82
2023/07/30 06:16:27;;;;;;;;;;;;;;;22.42;nan;99992.75;5055233;28;19954;-82
2023/07/30 06:18:52;;;;;;;;;;;;;;;22.48;nan;99994.50;5055018;28;19927;-83
2023/07/30 06:21:17;;;;;;;;;;;;;;;22.47;nan;99995.53;5046794;28;20349;-82
2023/07/30 06:23:42;;;;;;;;;;;;;;;22.51;nan;99995.88;5041993;28;19962;-82
2023/07/30 06:26:08;;;;;;;;;;;;;;;22.46;nan;100003.88;5052724;28;19913;-83
2023/07/30 06:28:33;;;;;;;;;;;;;;;22.33;nan;100010.38;5052020;28;19970;-83
2023/07/30 06:31:02;;;;;;;;;;;;;;;22.25;nan;100000.00;5048981;28;20421;-83
2023/07/30 06:33:27;;;;;;;;;;;;;;;22.29;nan;100019.22;5048793;28;20369;-83
2023/07/30 06:35:58;;;;;;;;;;;;;;;22.26;nan;100012.41;5053582;28;19923;-83
2023/07/30 06:38:23;;;;;;;;;;;;;;;22.11;nan;100012.09;5053867;28;20389;-83
2023/07/30 06:40:48;;;;;;;;;;;;;;;21.89;nan;100003.88;5050669;28;19917;-83
2023/07/30 06:43:13;;;;;;;;;;;;;;;21.66;nan;100005.56;5053588;28;19939;-83
2023/07/30 06:45:39;;;;;;;;;;;;;;;21.57;nan;100009.66;5051442;28;19917;-83
2023/07/30 06:48:04;;;;;;;;;;;;;;;21.48;nan;100005.72;5048243;28;20370;-83
2023/07/30 06:50:29;;;;;;;;;;;;;;;21.39;nan;100005.25;5046484;28;19956;-83
2023/07/30 06:52:54;;;;;;;;;;;;;;;21.28;nan;99998.00;5043694;28;19923;-83
2023/07/30 06:55:20;;;;;;;;;;;;;;;21.15;nan;100002.56;5048533;28;19917;-83
2023/07/30 06:57:45;;;;;;;;;;;;;;;21.05;nan;99990.78;5053378;28;19921;-84
2023/07/30 07:00:11;;;;;;;;;;;;;;;21.01;nan;99995.78;5049963;28;19920;-83
2023/07/30 07:02:36;;;;;;;;;;;;;;;20.93;nan;99990.75;5047401;28;20457;-82
2023/07/30 07:05:01;;;;;;;;;;;;;;;20.88;nan;99988.78;5052513;28;19919;-83
2023/07/30 07:07:26;;;;;;;;;;;;;;;20.83;nan;99995.88;5046967;28;20328;-83
2023/07/30 07:09:52;;;;;;;;;;;;;;;20.90;nan;99994.72;5046150;28;19916;-83
2023/07/30 07:12:17;;;;;;;;;;;;;;;20.95;nan;100012.81;5038552;28;19913;-83
2023/07/30 07:14:43;;;;;;;;;;;;;;;20.95;nan;99999.38;5050191;28;19999;-83
2023/07/30 07:17:08;;;;;;;;;;;;;;;20.91;nan;100000.94;5054140;28;19913;-83
2023/07/30 07:19:36;;;;;;;;;;;;;;;20.83;nan;99996.69;5044102;28;20036;-83
2023/07/30 07:22:23;;;;;;;;;;;;;;;20.73;nan;100004.50;5044882;28;19912;-83
2023/07/30 07:24:54;;;;;;;;;;;;;;;20.72;nan;100001.00;5052890;28;19924;-83
2023/07/30 07:27:20;;;;;;;;;;;;;;;20.90;nan;99988.53;5051635;28;20052;-84
2023/07/30 07:29:45;;;;;;;;;;;;;;;21.05;nan;99998.84;5050355;28;19923;-83
2023/07/30 07:32:10;;;;;;;;;;;;;;;20.99;nan;100009.44;5042061;28;19924;-83
2023/07/30 07:34:36;;;;;;;;;;;;;;;20.65;nan;100004.88;5035047;28;19921;-82
2023/07/30 07:37:01;;;;;;;;;;;;;;;20.36;nan;100008.16;5049985;28;19916;-82
2023/07/30 07:39:27;;;;;;;;;;;;;;;20.18;nan;99984.03;5047168;28;19921;-82
2023/07/30 07:41:52;;;;;;;;;;;;;;;20.04;nan;99996.81;5045550;28;19912;-81
2023/07/30 07:44:17;;;;;;;;;;;;;;;19.94;nan;100005.41;5044948;28;20332;-81
2023/07/30 07:46:42;;;;;;;;;;;;;;;19.81;nan;99999.41;5052396;28;19913;-82
2023/07/30 07:49:08;;;;;;;;;;;;;;;19.69;nan;99989.41;5050172;28;19940;-82
2023/07/30 07:51:33;;;;;;;;;;;;;;;19.67;nan;99998.72;5057782;28;20020;-81
2023/07/30 07:53:59;;;;;;;;;;;;;;;19.72;nan;100005.06;5057824;28;19995;-82
2023/07/30 07:56:24;;;;;;;;;;;;;;;19.73;nan;99992.47;5049818;28;19999;-82
2023/07/30 07:58:49;;;;;;;;;;;;;;;19.76;nan;99997.41;5049566;28;19921;-83
2023/07/30 08:01:14;;;;;;;;;;;;;;;19.85;nan;100005.94;5045306;28;20024;-83
2023/07/30 08:03:39;;;;;;;;;;;;;;;;;;5050844;28;19917;-83
2023/07/30 08:06:05;;;;;;;;;;;;;;;20.10;nan;100006.66;5049458;28;19966;-82
2023/07/30 08:08:31;;;;;;;;;;;;;;;20.37;nan;100004.41;5039648;28;20369;-82
2023/07/30 08:10:56;;;;;;;;;;;;;;;20.57;nan;100009.53;5038910;28;19921;-82
2023/07/30 08:13:21;;;;;;;;;;;;;;;20.94;nan;100022.75;5052931;28;19916;-83
2023/07/30 08:15:46;;;;;;;;;;;;;;;21.38;nan;100023.25;5050069;28;19912;-83
2023/07/30 08:18:11;;;;;;;;;;;;;;;21.66;nan;100027.09;5047625;28;19925;-82
2023/07/30 08:20:37;;;;;;;;;;;;;;;21.84;nan;100031.50;5048190;28;19927;-83
2023/07/30 08:23:02;;;;;;;;;;;;;;;22.04;nan;100026.50;5043473;28;19917;-84
2023/07/30 08:25:27;;;;;;;;;;;;;;;22.26;nan;100024.03;5055391;28;19920;-83
2023/07/30 08:27:52;;;;;;;;;;;;;;;22.26;nan;100032.09;5051002;28;19912;-83
2023/07/30 08:30:18;;;;;;;;;;;;;;;22.44;nan;100032.94;5044810;28;20017;-83
2023/07/30 08:32:43;;;;;;;;;;;;;;;22.71;nan;100029.63;5048807;28;20276;-83
2023/07/30 08:35:09;;;;;;;;;;;;;;;22.63;nan;100033.53;5046834;28;20363;-83
2023/07/30 08:37:34;;;;;;;;;;;;;;;22.51;nan;100041.69;5057666;28;19944;-83
2023/07/30 08:40:09;;;;;;;;;;;;;;;22.36;nan;100028.78;5057987;28;19921;-83
2023/07/30 08:42:34;;;;;;;;;;;;;;;22.32;nan;100034.88;5050488;28;19923;-84
2023/07/30 08:44:59;;;;;;;;;;;;;;;22.17;nan;100036.19;5042777;28;19980;-83
2023/07/30 08:47:24;;;;;;;;;;;;;;;22.03;nan;100032.97;5046759;28;19927;-84
2023/07/30 08:49:50;;;;;;;;;;;;;;;21.99;nan;100037.19;5045439;28;19972;-83
2023/07/30 08:52:16;;;;;;;;;;;;;;;22.03;nan;100032.97;5041595;28;19916;-83
2023/07/30 08:54:42;;;;;;;;;;;;;;;22.33;nan;100031.13;5045135;28;19939;-83
2023/07/30 08:57:07;;;;;;;;;;;;;;;22.66;nan;100041.94;5047736;28;20110;-83
2023/07/30 08:59:44;;;;;;;;;;;;;;;22.88;nan;100033.97;5046266;28;19986;-83
2023/07/30 09:02:14;;;;;;;;;;;;;;;23.90;nan;100052.72;5047764;28;19917;-83
2023/07/30 09:04:40;;;;;;;;;;;;;;;24.53;nan;100054.00;5048266;28;19937;-83
2023/07/30 09:07:08;;;;;;;;;;;;;;;25.26;nan;100045.38;5046053;28;20477;-83
2023/07/30 09:09:33;;;;;;;;;;;;;;;26.20;nan;100056.44;5043956;28;20438;-83
2023/07/30 09:12:00;;;;;;;;;;;;;;;27.25;nan;100075.00;5038757;28;20043;-84
2023/07/30 09:14:26;;;;;;;;;;;;;;;28.00;nan;100073.44;5039087;28;19932;-84
2023/07/30 09:16:58;;;;;;;;;;;;;;;28.49;nan;100084.34;5031753;28;19917;-85
2023/07/30 09:19:23;;;;;;;;;;;;;;;28.76;nan;100081.16;5047481;28;20366;-85
2023/07/30 09:21:49;;;;;;;;;;;;;;;28.56;nan;100079.41;5038946;28;19924;-84
2023/07/30 09:24:20;;;;;;;;;;;;;;;27.95;nan;100079.72;5048567;28;20394;-84
2023/07/30 09:26:46;;;;;;;;;;;;;;;27.92;nan;100085.72;5046154;28;19917;-85
2023/07/30 09:29:12;;;;;;;;;;;;;;;27.75;nan;100084.09;5047548;28;19923;-83
2023/07/30 09:31:47;;;;;;;;;;;;;;;27.46;nan;100091.22;5047958;28;19924;-84
2023/07/30 09:34:14;;;;;;;;;;;;;;;27.34;nan;100094.28;5047648;28;19960;-83
2023/07/30 09:36:40;;;;;;;;;;;;;;;27.22;nan;100088.28;5042094;28;19942;-83
2023/07/30 09:39:13;;;;;;;;;;;;;;;27.45;nan;100098.56;5043203;28;19928;-84
2023/07/30 09:41:41;;;;;;;;;;;;;;;27.66;nan;100102.06;5049883;28;19950;-85
2023/07/30 09:44:06;;;;;;;;;;;;;;;27.92;nan;100107.47;5047586;28;19927;-84
2023/07/30 09:46:31;;;;;;;;;;;;;;;28.37;nan;100105.63;5050481;28;19920;-84
2023/07/30 09:48:57;;;;;;;;;;;;;;;28.50;nan;100109.66;5043892;28;19925;-84
2023/07/30 09:51:23;;;;;;;;;;;;;;;28.88;nan;100099.03;5048051;28;19917;-84
2023/07/30 09:53:48;;;;;;;;;;;;;;;;;;5046881;28;19920;-84
2023/07/30 09:56:13;;;;;;;;;;;;;;;27.38;nan;100094.53;5045579;28;19967;-84
2023/07/30 09:58:39;;;;;;;;;;;;;;;26.86;nan;100105.38;5039352;28;19924;-83
2023/07/30 10:01:04;;;;;;;;;;;;;;;26.20;nan;100110.63;5046123;28;19916;-83
2023/07/30 10:03:33;;;;;;;;;;;;;;;25.62;nan;100114.13;5052989;28;19948;-84
2023/07/30 10:06:04;;;;;;;;;;;;;;;25.34;nan;100100.94;5052123;28;20011;-84
2023/07/30 10:08:30;;;;;;;;;;;;;;;;;;5043067;28;19920;-84
2023/07/30 10:10:55;;;;;;;;;;;;;;;25.15;nan;100127.56;5054078;28;19928;-84
2023/07/30 10:13:22;;;;;;;;;;;;;;;26.47;nan;100129.41;5052985;28;19916;-84
2023/07/30 10:15:47;;;;;;;0.00;0.00;;;;;;;27.70;nan;100141.19;5043245;28;19943;-84
2023/07/30 10:18:12;;;;;;;0.00;0.00;;;;;;;;;;5046336;28;20132;-83
2023/07/30 10:20:38;;;;;;;0.00;0.00;;;;;;;26.82;nan;100144.16;5044891;28;20474;-84
2023/07/30 10:23:04;;;;;;;0.00;0.00;;;;;;;;;;5048851;28;20028;-84
2023/07/30 10:25:44;;;;;;;0.00;0.00;;;;;;;26.40;nan;100140.50;5044032;28;20485;-85
2023/07/30 10:28:29;;;;;;;;;;;;;;;26.72;nan;100147.69;5041635;28;20163;-85
2023/07/30 10:30:58;;;;;;;0.00;0.00;;;;;;;;;;5070911;28;19924;-85
2023/07/30 10:33:43;;;;;;;0.00;0.00;;;;;;;26.89;nan;100125.72;5073513;28;20405;-84
2023/07/30 10:36:09;;;;;;;0.00;0.00;;;;;;;;;;5059707;28;20047;-86
2023/07/30 10:38:35;;;;;;;0.00;0.00;;;;;;;29.06;nan;100150.09;5054499;28;20435;-85
2023/07/30 10:41:00;;;;;;;;;;;;;;;30.48;nan;100157.91;5055763;28;20116;-86
2023/07/30 10:43:29;;;;;;;;;;;;;;;31.49;nan;100175.81;5041375;28;20194;-87
2023/07/30 10:45:54;;;;;;;0.00;0.00;;;;;;;;;;5057301;28;19912;-86
2023/07/30 10:48:28;;;;;;;0.00;0.00;;;;;;;;;;5039784;28;20402;-87
2023/07/30 10:50:54;;;;;;;0.00;0.00;;;;;;;29.76;nan;100163.38;5042755;28;20471;-86
2023/07/30 10:53:19;;;;;;;0.00;0.00;;;;;;;29.04;nan;100230.41;5043078;28;20334;-86
2023/07/30 10:55:44;;;;;;;;;;;;;;;28.29;nan;100168.72;5050872;28;20029;-84
2023/07/30 10:58:10;;;;;;;0.00;0.00;;;;;;;27.82;nan;100116.44;5047034;28;19921;-87
2023/07/30 11:00:37;;;;;;;0.00;0.00;;;;;;;28.17;nan;100166.31;5058229;28;20037;-86
2023/07/30 11:03:02;;;;;;;0.00;0.00;;;;;;;;;;5044947;28;20075;-86
2023/07/30 11:05:28;;;;;;;0.00;0.00;;;;;;;28.28;nan;100178.78;5045625;28;20061;-86
2023/07/30 11:07:53;;;;;;;0.00;0.00;;;;;;;;;;5037210;28;20037;-85
2023/07/30 11:10:18;;;;;;;0.00;0.00;;;;;;;;;;5055408;28;20037;-85
2023/07/30 11:12:43;;;;;;;0.00;0.00;;;;;;;;;;5053008;28;20112;-86
2023/07/30 11:15:09;;;;;;;0.00;0.00;;;;;;;;;;5052168;28;20040;-86
2023/07/30 11:17:34;;;;;;;0.00;0.00;;;;;;;29.58;nan;100194.06;5042509;28;20391;-86
2023/07/30 11:19:59;;;;;;;0.00;0.00;;;;;;;;;;5049965;28;20502;-84
2023/07/30 11:22:32;;;;;;;0.00;0.00;;;;;;;30.09;nan;100231.75;5050568;28;20172;-86
2023/07/30 11:24:57;;;;;;;0.00;0.00;;;;;;;;;;5048480;28;20441;-86
2023/07/30 11:27:23;;;;;;;0.00;0.00;;;;;;;31.37;nan;100221.06;5029967;28;20177;-85
2023/07/30 11:29:56;;;;;;;0.00;0.00;;;;;;;29.74;nan;100206.47;5049583;28;20106;-86
2023/07/30 11:32:25;;;;;;;0.00;0.00;;;;;;;28.74;nan;100229.47;5044097;28;20040;-86
2023/07/30 11:34:50;;;;;;;0.00;0.00;;;;;;;29.01;nan;100186.31;5036341;28;20044;-86
2023/07/30 11:37:16;;;;;;;0.00;0.00;;;;;;;28.48;nan;100237.75;5035322;28;20419;-85
2023/07/30 11:39:41;;;;;;;0.00;0.00;;;;;;;27.76;nan;100220.75;5052293;28;20033;-85
2023/07/30 11:42:06;;;;;;;0.00;0.00;;;;;;;;;;5052865;28;20036;-83
2023/07/30 11:44:34;;;;;;;0.00;0.00;;;;;;;26.50;nan;100183.09;5055969;28;20441;-85
2023/07/30 11:47:00;;;;;;;0.00;0.00;;;;;;;;;;5047863;28;20111;-85
2023/07/30 11:49:25;;;;;;;0.00;0.00;;;;;;;;;;5052789;28;20121;-84
2023/07/30 11:51:51;;;;;;;0.00;0.00;;;;;;;;;;5054246;28;20132;-85
2023/07/30 11:54:23;;;;;;;0.00;0.00;;;;;;;29.10;nan;100302.81;5054578;28;20276;-85
2023/07/30 11:56:56;;;;;;;0.00;0.00;;;;;;;30.81;nan;100215.31;5037065;28;20030;-87
2023/07/30 11:59:21;;;;;;;0.00;0.00;;;;;;;;;;5047493;28;20029;-85
2023/07/30 12:01:47;;;;;;;0.00;0.00;;;;;;;31.89;nan;100266.41;5051323;28;20083;-84
2023/07/30 12:04:12;;;;;;;0.00;0.00;;;;;;;31.32;nan;100252.00;5051656;28;20048;-84
2023/07/30 12:06:38;;;;;;;0.00;0.00;;;;;;;;;;5042134;28;20576;-82
2023/07/30 12:09:09;;;;;;;0.00;0.00;;;;;;;;;;5050385;28;20032;-83
2023/07/30 12:11:43;;;;;;;;;;;;;;;27.15;nan;100258.72;5053914;28;20426;-84
2023/07/30 12:14:08;;;;;;;0.00;0.00;;;;;;;26.53;nan;100266.66;5055572;28;20308;-83
2023/07/30 12:16:34;;;;;;;0.00;0.00;;;;;;;;;;5054275;28;20116;-84
2023/07/30 12:18:59;;;;;;;0.00;0.00;;;;;;;;;;5052562;28;20274;-82
2023/07/30 12:21:24;;;;;;;0.00;0.00;;;;;;;26.17;nan;100263.75;5052125;28;20053;-84
2023/07/30 12:23:49;;;;;;;0.00;0.00;;;;;;;;;;5050603;28;20608;-82
2023/07/30 12:26:15;;;;;;;0.00;0.00;;;;;;;26.18;nan;100251.81;5052329;28;20131;-84
2023/07/30 12:28:40;;;;;;;0.00;0.00;;;;;;;;;;5051817;28;20033;-88
2023/07/30 12:31:05;;;;;;;0.00;0.00;;;;;;;;;;5052058;28;20463;-82
2023/07/30 12:33:30;;;;;;;0.05;0.05;;;;;;;;;;5051818;28;20036;-84
2023/07/30 12:35:55;;;;;;;0.00;0.00;;;;;;;26.26;nan;100264.06;5041770;28;20033;-82
2023/07/30 12:38:21;;;;;;;0.00;0.00;;;;;;;26.79;nan;100293.88;5052986;28;20405;-84
2023/07/30 12:40:46;;;;;;;0.00;0.00;;;;;;;;;;5058927;28;20045;-82
2023/07/30 12:43:11;;;;;;;0.00;0.00;;;;;;;;;;5058129;28;20262;-82
2023/07/30 12:45:37;;;;;;;0.00;0.00;;;;;;;;;;5051477;28;20037;-86
2023/07/30 12:48:03;;;;;;;0.00;0.00;;;;;;;27.39;nan;100340.50;5050858;28;20491;-81
2023/07/30 12:50:28;;;;;;;0.00;0.00;;;;;;;;;;5051616;28;20102;-85
2023/07/30 12:52:53;;;;;;;0.00;0.00;;;;;;;;;;5033016;28;20072;-85
2023/07/30 12:55:18;;;;;;;0.00;0.00;;;;;;;;;;5060748;28;20406;-85
2023/07/30 12:57:44;;;;;;;0.00;0.00;;;;;;;;;;5051732;28;20036;-83
2023/07/30 13:00:09;;;;;;;0.00;0.00;;;;;;;26.51;nan;100298.63;5052769;28;20037;-83
2023/07/30 13:02:35;;;;;;;0.00;0.00;;;;;;;;;;5050878;28;20057;-82
2023/07/30 13:05:01;;;;;;;0.00;0.00;;;;;;;26.01;nan;100279.06;5049776;28;20053;-83
2023/07/30 13:07:26;;;;;;;0.00;0.00;;;;;;;;;;5053631;28;20094;-85